Ilyas Efendiyev — 9HES8 — position and weather

sailwx.info

Track history (hours):
 
Tides and Currents Weather Stations Pressure Air Temp Water Temp Dewpoint Dewpoint Depression Visibility Wind Speed Wind Dir Waves Ship Positions

Ilyas Efendiyev

Last reported at 2018-Apr-19 03:24 UTC. Time now 2018-Apr-23 09:53 UTC.
Position N 45°32' E 036°48'.

Length 140 m; draft 3.5 m.

Type: Cargo ship. MMSI: 215901000.

Date/timePositionNaut miles runAvg speedWind from/ knotsBaromVisibWave heightAir tempDewpointWater temp
2018-Apr-19 03:24N 45°32' E 036°48'4 9.3
2018-Apr-19 03:00N 45°29' E 036°44'4 8.9
2018-Apr-19 02:30N 45°25' E 036°41'4 8.5
2018-Apr-19 02:01N 45°21' E 036°40'4 7.5
2018-Apr-19 01:30N 45°19' E 036°35'4 7.4
2018-Apr-19 00:53N 45°17' E 036°29'1 3.3
2018-Apr-19 00:29N 45°16' E 036°29'5 0.3
2018-Apr-18 07:23N 45°12' E 036°28'3 8.6
2018-Apr-18 07:00N 45°15' E 036°28'3 6.8
2018-Apr-18 06:30N 45°18' E 036°29'4 8.0
2018-Apr-18 06:01N 45°20' E 036°34'4 7.9
2018-Apr-18 05:30N 45°21' E 036°39'4 7.9
2018-Apr-18 05:00N 45°25' E 036°41'4 8.2
2018-Apr-18 04:30N 45°29' E 036°38'0 0.0
2018-Apr-18 00:16N 45°29' E 036°38'0 0.0
2018-Apr-17 23:40N 45°29' E 036°38'0 0.0
2018-Apr-17 23:11N 45°29' E 036°38'0 0.1
2018-Apr-17 22:46N 45°29' E 036°38'0 0.1
2018-Apr-17 22:31N 45°29' E 036°38'  
2018-Apr-13 11:49N 45°33' E 036°49'3 8.7
2018-Apr-13 11:27N 45°31' E 036°46'4 8.6
2018-Apr-13 11:00N 45°28' E 036°43'4 8.5
2018-Apr-13 10:30N 45°24' E 036°41'3 6.7
2018-Apr-13 10:00N 45°21' E 036°39'3 6.6
2018-Apr-13 09:30N 45°19' E 036°34'4 7.1
2018-Apr-13 08:59N 45°18' E 036°29'2 5.2
2018-Apr-13 08:30N 45°16' E 036°29'2 3.7
2018-Apr-13 08:00N 45°14' E 036°29'2 3.9
2018-Apr-13 07:25N 45°12' E 036°29'  
2018-Apr-10 12:49N 45°12' E 036°28'3 8.8
2018-Apr-10 12:27N 45°15' E 036°28'3 7.5
2018-Apr-10 12:00N 45°18' E 036°29'5 8.8
2018-Apr-10 11:29N 45°20' E 036°35'4 7.9
2018-Apr-10 11:00N 45°22' E 036°40'  
Track history (hours):
 
Tides and Currents Weather Stations Pressure Air Temp Water Temp Dewpoint Dewpoint Depression Visibility Wind Speed Wind Dir Waves Ship Positions

Ilyas Efendiyev

Last reported at 2018-Apr-19 03:24 UTC. Time now 2018-Apr-23 09:53 UTC.
Position N 45°32' E 036°48'.

Length 140 m; draft 3.5 m.

Type: Cargo ship. MMSI: 215901000.

Date/timePositionNaut miles runAvg speedWind from/ knotsBaromVisibWave heightAir tempDewpointWater temp
2018-Apr-19 03:24N 45°32' E 036°48'4 9.3
2018-Apr-19 03:00N 45°29' E 036°44'4 8.9
2018-Apr-19 02:30N 45°25' E 036°41'4 8.5
2018-Apr-19 02:01N 45°21' E 036°40'4 7.5
2018-Apr-19 01:30N 45°19' E 036°35'4 7.4
2018-Apr-19 00:53N 45°17' E 036°29'1 3.3
2018-Apr-19 00:29N 45°16' E 036°29'5 0.3
2018-Apr-18 07:23N 45°12' E 036°28'3 8.6
2018-Apr-18 07:00N 45°15' E 036°28'3 6.8
2018-Apr-18 06:30N 45°18' E 036°29'4 8.0
2018-Apr-18 06:01N 45°20' E 036°34'4 7.9
2018-Apr-18 05:30N 45°21' E 036°39'4 7.9
2018-Apr-18 05:00N 45°25' E 036°41'4 8.2
2018-Apr-18 04:30N 45°29' E 036°38'0 0.0
2018-Apr-18 00:16N 45°29' E 036°38'0 0.0
2018-Apr-17 23:40N 45°29' E 036°38'0 0.0
2018-Apr-17 23:11N 45°29' E 036°38'0 0.1
2018-Apr-17 22:46N 45°29' E 036°38'0 0.1
2018-Apr-17 22:31N 45°29' E 036°38'  
2018-Apr-13 11:49N 45°33' E 036°49'3 8.7
2018-Apr-13 11:27N 45°31' E 036°46'4 8.6
2018-Apr-13 11:00N 45°28' E 036°43'4 8.5
2018-Apr-13 10:30N 45°24' E 036°41'3 6.7
2018-Apr-13 10:00N 45°21' E 036°39'3 6.6
2018-Apr-13 09:30N 45°19' E 036°34'4 7.1
2018-Apr-13 08:59N 45°18' E 036°29'2 5.2
2018-Apr-13 08:30N 45°16' E 036°29'2 3.7
2018-Apr-13 08:00N 45°14' E 036°29'2 3.9
2018-Apr-13 07:25N 45°12' E 036°29'  
2018-Apr-10 12:49N 45°12' E 036°28'3 8.8
2018-Apr-10 12:27N 45°15' E 036°28'3 7.5
2018-Apr-10 12:00N 45°18' E 036°29'5 8.8
2018-Apr-10 11:29N 45°20' E 036°35'4 7.9
2018-Apr-10 11:00N 45°22' E 036°40'  

Dump ship's entire track history